Time;durP1;ratioP1;P1;durP2;ratioP2;P2;SDS_P1;SDS_P2;PMS_P1;PMS_P2;Temp;Humidity;BMP_temperature;BMP_pressure;BME280_temperature;BME280_humidity;BME280_pressure;Samples;Min_cycle;Max_cycle;Signal;HPM_P1;HPM_P2
2022/10/01 00:01:06;;;;;;;10.95;8.52;;;;;;;9.50;100.00;100098.75;6092667;23;20066;-81
2022/10/01 00:03:33;;;;;;;9.57;8.68;;;;;;;9.50;100.00;100105.84;6090861;23;20018;-81
2022/10/01 00:06:00;;;;;;;10.75;9.57;;;;;;;9.47;100.00;100101.56;6091417;23;20069;-80
2022/10/01 00:08:27;;;;;;;10.18;8.93;;;;;;;9.48;100.00;100101.47;6092001;23;20046;-80
2022/10/01 00:10:52;;;;;;;9.57;8.68;;;;;;;9.46;100.00;100090.09;6092039;23;20104;-80
2022/10/01 00:13:18;;;;;;;9.02;8.20;;;;;;;9.45;100.00;100091.03;6091193;23;20472;-80
2022/10/01 00:15:43;;;;;;;10.18;9.18;;;;;;;9.50;100.00;100111.16;6091493;23;20006;-80
2022/10/01 00:18:09;;;;;;;10.50;9.40;;;;;;;9.45;100.00;100087.53;6091439;23;20038;-80
2022/10/01 00:20:39;;;;;;;13.02;9.82;;;;;;;9.44;100.00;100093.78;6091640;23;20050;-80
2022/10/01 00:23:04;;;;;;;10.98;9.13;;;;;;;9.43;100.00;100084.94;6064257;23;20021;-80
2022/10/01 00:25:29;;;;;;;9.25;8.35;;;;;;;9.44;100.00;100073.38;6091155;23;20010;-80
2022/10/01 00:27:55;;;;;;;10.65;9.57;;;;;;;9.39;100.00;100061.31;6065734;23;20010;-80
2022/10/01 00:30:20;;;;;;;10.27;9.05;;;;;;;9.39;100.00;100067.47;6065787;23;20007;-79
2022/10/01 00:32:45;;;;;;;10.55;9.02;;;;;;;9.35;100.00;100073.91;6065109;23;20010;-80
2022/10/01 00:35:12;;;;;;;10.20;9.07;;;;;;;9.34;100.00;100066.91;6090923;23;20009;-80
2022/10/01 00:37:38;;;;;;;10.60;9.50;;;;;;;9.42;100.00;100093.88;6091660;23;20013;-80
2022/10/01 00:40:05;;;;;;;11.32;9.40;;;;;;;9.35;100.00;100081.88;6091425;23;20399;-81
2022/10/01 00:42:30;;;;;;;10.90;9.90;;;;;;;9.39;100.00;100086.06;6091036;23;20036;-80
2022/10/01 00:44:57;;;;;;;11.65;9.77;;;;;;;9.42;100.00;100072.63;6065398;23;20006;-80
2022/10/01 00:47:34;;;;;;;10.32;9.23;;;;;;;9.40;100.00;100052.41;6091274;23;20014;-80
2022/10/01 00:50:16;;;;;;;10.30;9.30;;;;;;;9.43;100.00;100026.50;6090526;23;20057;-79
2022/10/01 00:52:47;;;;;;;11.07;8.98;;;;;;;9.41;100.00;100038.19;6090405;23;20505;-79
2022/10/01 00:55:36;;;;;;;10.52;9.48;;;;;;;9.37;100.00;100015.41;6091025;23;20012;-80
2022/10/01 00:58:03;;;;;;;10.75;9.65;;;;;;;9.41;100.00;100031.06;6091337;23;20025;-80
2022/10/01 01:00:30;;;;;;;9.88;8.88;;;;;;;9.40;100.00;100045.28;6090930;23;20078;-80
2022/10/01 01:02:55;;;;;;;8.90;8.05;;;;;;;9.47;100.00;100051.94;6089292;23;20333;-80
2022/10/01 01:05:21;;;;;;;9.68;8.68;;;;;;;9.51;100.00;100073.03;6090694;23;20006;-80
2022/10/01 01:07:49;;;;;;;9.18;8.35;;;;;;;9.48;100.00;100069.59;6065459;23;20010;-80
2022/10/01 01:10:20;;;;;;;10.18;9.18;;;;;;;9.46;100.00;100058.22;6091094;23;20440;-80
2022/10/01 01:12:52;;;;;;;11.70;8.13;;;;;;;9.46;100.00;100092.75;6090768;23;20010;-80
2022/10/01 01:15:27;;;;;;;9.23;8.30;;;;;;;9.43;100.00;100069.00;6091020;23;20053;-80
2022/10/01 01:18:17;;;;;;;10.40;8.65;;;;;;;9.44;100.00;100049.47;6090577;23;20002;-81
2022/10/01 01:20:49;;;;;;;10.43;9.07;;;;;;;9.48;100.00;100079.38;6065658;23;20010;-81
2022/10/01 01:23:17;;;;;;;9.43;8.15;;;;;;;9.47;100.00;100059.91;6090201;23;20013;-80
2022/10/01 01:26:03;;;;;;;12.43;8.88;;;;;;;9.44;100.00;100036.19;6091260;23;20002;-82
2022/10/01 01:28:33;;;;;;;9.52;8.48;;;;;;;9.43;100.00;100007.91;6091145;23;20010;-82
2022/10/01 01:31:06;;;;;;;9.95;8.02;;;;;;;9.39;100.00;100010.84;6091175;23;20009;-82
2022/10/01 01:33:36;;;;;;;9.88;8.82;;;;;;;9.39;100.00;100019.66;6088824;23;20002;-80
2022/10/01 01:36:07;;;;;;;10.20;8.60;;;;;;;9.40;100.00;99994.81;6091327;23;20061;-81
2022/10/01 01:38:39;;;;;;;9.50;7.82;;;;;;;9.40;100.00;99970.91;6092693;23;20006;-80
2022/10/01 01:41:06;;;;;;;8.55;7.72;;;;;;;9.36;100.00;99972.03;6091315;23;20724;-80
2022/10/01 01:43:42;;;;;;;9.65;7.60;;;;;;;9.33;100.00;99966.09;6090692;23;20089;-81
2022/10/01 01:46:11;;;;;;;9.27;7.80;;;;;;;9.33;100.00;99939.53;6090410;23;20018;-82
2022/10/01 01:48:38;;;;;;;8.95;8.05;;;;;;;9.36;100.00;99937.50;6090608;23;20022;-82
2022/10/01 01:51:39;;;;;;;8.55;7.70;;;;;;;9.35;100.00;99930.50;6089125;23;20097;-82
2022/10/01 01:54:04;;;;;;;8.65;7.43;;;;;;;9.35;100.00;99941.13;6064163;23;20065;-82
2022/10/01 01:56:30;;;;;;;8.20;6.97;;;;;;;9.35;100.00;99957.06;6090626;23;20006;-81
2022/10/01 01:58:58;;;;;;;8.75;6.80;;;;;;;9.37;100.00;99970.25;6090312;23;20021;-80
2022/10/01 02:01:34;;;;;;;8.73;7.30;;;;;;;9.36;100.00;99968.53;6089858;23;20007;-80
2022/10/01 02:04:04;;;;;;;7.43;6.68;;;;;;;9.31;100.00;99955.53;6064150;23;20639;-81
2022/10/01 02:06:48;;;;;;;8.93;7.15;;;;;;;9.36;100.00;99964.06;6090211;23;20026;-80
2022/10/01 02:09:27;;;;;;;8.00;6.70;;;;;;;9.34;100.00;99965.97;6089685;23;20007;-81
2022/10/01 02:12:13;;;;;;;8.40;7.47;;;;;;;9.36;100.00;99974.69;6088802;23;20133;-82
2022/10/01 02:15:06;;;;;;;7.65;6.68;;;;;;;9.34;100.00;99950.03;6042436;23;20426;-81
2022/10/01 02:17:49;;;;;;;7.15;6.30;;;;;;;9.32;100.00;99949.31;6089480;23;20006;-80
2022/10/01 02:20:26;;;;;;;7.47;6.78;;;;;;;9.36;100.00;99948.13;6089778;23;19998;-80
2022/10/01 02:23:05;;;;;;;7.60;6.18;;;;;;;9.36;100.00;99940.16;6089757;23;20342;-81
2022/10/01 02:25:44;;;;;;;6.68;6.07;;;;;;;9.39;100.00;99955.94;6064035;23;20006;-81
2022/10/01 02:28:15;;;;;;;5.80;5.22;;;;;;;9.33;100.00;99945.69;6089553;23;20016;-82
2022/10/01 02:30:43;;;;;;;6.85;5.07;;;;;;;9.41;100.00;99951.41;6089687;23;20003;-81
2022/10/01 02:33:12;;;;;;;5.78;4.63;;;;;;;9.41;100.00;99934.63;6089063;23;20110;-84
2022/10/01 02:35:40;;;;;;;6.45;5.25;;;;;;;9.33;100.00;99932.41;6090031;23;20006;-83
2022/10/01 02:38:08;;;;;;;5.18;4.43;;;;;;;9.42;100.00;99926.53;6089773;23;20014;-83
2022/10/01 02:40:37;;;;;;;5.30;4.15;;;;;;;9.39;100.00;99929.38;6090081;23;20421;-82
2022/10/01 02:43:17;;;;;;;4.45;4.05;;;;;;;9.36;100.00;99916.28;6089892;23;20006;-83
2022/10/01 02:45:46;;;;;;;4.88;4.47;;;;;;;9.43;100.00;99917.63;6090421;23;20030;-82
2022/10/01 02:48:15;;;;;;;4.57;3.97;;;;;;;9.42;100.00;99915.06;6090351;23;20594;-81
2022/10/01 02:50:53;;;;;;;3.97;3.60;;;;;;;9.44;100.00;99914.00;6090774;23;20133;-82
2022/10/01 02:53:24;;;;;;;3.17;2.97;;;;;;;9.46;100.00;99905.97;6088813;23;20101;-81
2022/10/01 02:55:51;;;;;;;4.30;4.00;;;;;;;9.46;100.00;99911.28;6089924;23;20022;-80
2022/10/01 02:58:18;;;;;;;5.40;3.25;;;;;;;9.45;100.00;99905.13;6089726;23;20017;-81
2022/10/01 03:00:43;;;;;;;4.13;3.40;;;;;;;9.45;100.00;99913.09;6089317;23;20057;-81
2022/10/01 03:03:08;;;;;;;3.40;3.10;;;;;;;9.47;100.00;99907.66;6088115;23;20014;-80
2022/10/01 03:05:34;;;;;;;4.72;3.00;;;;;;;9.50;100.00;99901.31;6089549;23;20017;-81
2022/10/01 03:07:59;;;;;;;3.42;3.13;;;;;;;9.44;100.00;99903.38;6088515;23;20090;-81
2022/10/01 03:10:24;;;;;;;4.18;3.08;;;;;;;9.52;100.00;99899.41;6088970;23;20013;-80
2022/10/01 03:12:50;;;;;;;3.35;2.92;;;;;;;9.51;100.00;99908.34;6088401;23;20010;-81
2022/10/01 03:15:18;;;;;;;3.40;3.10;;;;;;;9.54;100.00;99918.78;6088708;23;20314;-81
2022/10/01 03:17:43;;;;;;;3.78;3.22;;;;;;;9.54;100.00;99908.16;6089098;23;20382;-80
2022/10/01 03:20:10;;;;;;;3.50;3.13;;;;;;;9.49;100.00;99897.81;6088958;23;20013;-80
2022/10/01 03:22:35;;;;;;;3.30;3.00;;;;;;;9.54;100.00;99897.53;6062630;23;20082;-80
2022/10/01 03:25:00;;;;;;;2.72;2.53;;;;;;;9.50;100.00;99899.50;6089445;23;20346;-80
2022/10/01 03:27:26;;;;;;;2.90;2.67;;;;;;;9.55;100.00;99905.38;6089016;23;20029;-80
2022/10/01 03:29:51;;;;;;;2.75;2.53;;;;;;;9.55;100.00;99899.22;6089547;23;20034;-80
2022/10/01 03:32:17;;;;;;;4.22;3.00;;;;;;;9.57;100.00;99895.53;6089382;23;20007;-81
2022/10/01 03:34:43;;;;;;;3.45;2.63;;;;;;;9.54;100.00;99889.56;6089922;23;20041;-81
2022/10/01 03:37:09;;;;;;;3.00;2.80;;;;;;;9.59;100.00;99887.47;6090481;23;20006;-80
2022/10/01 03:39:34;;;;;;;3.30;2.60;;;;;;;9.57;100.00;99889.34;6091759;23;20013;-81
2022/10/01 03:41:59;;;;;;;4.20;2.70;;;;;;;9.60;100.00;99905.09;6063906;23;20057;-80
2022/10/01 03:44:26;;;;;;;2.63;2.42;;;;;;;9.60;100.00;99891.81;6089574;23;20013;-81
2022/10/01 03:46:52;;;;;;;2.83;2.40;;;;;;;9.52;100.00;99883.47;6089712;23;20429;-80
2022/10/01 03:49:17;;;;;;;2.58;2.33;;;;;;;9.61;100.00;99888.22;6088913;23;20085;-80
2022/10/01 03:51:44;;;;;;;3.00;2.42;;;;;;;9.60;100.00;99883.84;6088724;23;20118;-82
2022/10/01 03:54:09;;;;;;;2.60;2.40;;;;;;;9.70;100.00;99893.81;6088197;23;20029;-80
2022/10/01 03:56:35;;;;;;;2.35;2.17;;;;;;;9.68;100.00;99890.41;6089438;23;20010;-80
2022/10/01 03:59:00;;;;;;;2.72;2.30;;;;;;;9.73;100.00;99903.38;6089782;23;20032;-80
2022/10/01 04:01:26;;;;;;;2.22;2.03;;;;;;;9.75;100.00;99904.16;6089020;23;20025;-81
2022/10/01 04:03:51;;;;;;;2.50;2.30;;;;;;;9.80;100.00;99902.06;6089554;23;20033;-80
2022/10/01 04:06:17;;;;;;;2.83;2.53;;;;;;;9.81;100.00;99905.56;6089716;23;20413;-81
2022/10/01 04:08:43;;;;;;;2.60;2.40;;;;;;;9.74;100.00;99897.16;6089144;23;20006;-81
2022/10/01 04:11:09;;;;;;;3.03;2.50;;;;;;;9.79;100.00;99892.41;6088180;23;20037;-81
2022/10/01 04:13:34;;;;;;;3.63;2.50;;;;;;;9.78;100.00;99893.34;6090963;23;20077;-79
2022/10/01 04:16:04;;;;;;;2.42;2.20;;;;;;;9.82;100.00;99910.78;6092571;23;20006;-80
2022/10/01 04:18:29;;;;;;;2.60;2.40;;;;;;;9.79;100.00;99900.38;6091974;23;20116;-81
2022/10/01 04:20:55;;;;;;;2.90;2.60;;;;;;;9.88;100.00;99914.88;6091040;23;20459;-81
2022/10/01 04:23:21;;;;;;;3.10;2.80;;;;;;;9.88;100.00;99925.50;6090828;23;20452;-81
2022/10/01 04:25:47;;;;;;;2.92;2.72;;;;;;;9.81;100.00;99900.25;6090359;23;20006;-81
2022/10/01 04:28:12;;;;;;;2.92;2.63;;;;;;;9.90;100.00;99927.09;6090832;23;20149;-81
2022/10/01 04:30:41;;;;;;;2.92;2.72;;;;;;;9.94;100.00;99925.97;6064368;23;20010;-81
2022/10/01 04:33:10;;;;;;;2.70;2.50;;;;;;;9.88;100.00;99907.75;6090959;23;20018;-80
2022/10/01 04:35:35;;;;;;;2.55;2.35;;;;;;;9.95;100.00;99916.22;6065746;23;20006;-81
2022/10/01 04:38:04;;;;;;;3.58;2.58;;;;;;;9.91;100.00;99912.03;6090684;23;20016;-81
2022/10/01 04:40:30;;;;;;;2.53;2.33;;;;;;;9.96;100.00;99921.41;6064558;23;20170;-81
2022/10/01 04:42:56;;;;;;;2.40;2.20;;;;;;;9.91;100.00;99907.56;6089911;23;20457;-81
2022/10/01 04:45:22;;;;;;;2.63;2.40;;;;;;;9.97;100.00;99928.44;6089569;23;20002;-81
2022/10/01 04:47:52;;;;;;;3.10;2.72;;;;;;;10.04;100.00;99939.56;6091410;23;20370;-81
2022/10/01 04:50:18;;;;;;;3.03;2.80;;;;;;;10.04;100.00;99933.38;6090043;23;20002;-81
2022/10/01 04:52:44;;;;;;;2.90;2.70;;;;;;;10.04;100.00;99922.75;6090700;23;20006;-81
2022/10/01 04:55:10;;;;;;;3.00;2.70;;;;;;;10.08;100.00;99935.75;6064069;23;20097;-81
2022/10/01 04:57:37;;;;;;;2.90;2.70;;;;;;;10.11;100.00;99943.50;6091332;23;20034;-81
2022/10/01 05:00:04;;;;;;;3.22;2.92;;;;;;;10.12;100.00;99937.25;6090683;23;20314;-81
2022/10/01 05:02:31;;;;;;;3.35;3.05;;;;;;;10.14;100.00;99938.00;6088934;23;20342;-80
2022/10/01 05:04:57;;;;;;;3.58;3.28;;;;;;;10.12;100.00;99936.41;6091018;23;20007;-81
2022/10/01 05:07:22;;;;;;;3.50;3.22;;;;;;;10.16;100.00;99932.63;6090621;23;20344;-81
2022/10/01 05:09:47;;;;;;;4.70;3.55;;;;;;;10.19;100.00;99932.41;6090465;23;20465;-81
2022/10/01 05:12:13;;;;;;;3.35;3.15;;;;;;;10.20;100.00;99932.31;6064063;23;20011;-81
2022/10/01 05:14:39;;;;;;;3.75;3.38;;;;;;;10.23;100.00;99939.22;6090402;23;20321;-81
2022/10/01 05:17:05;;;;;;;3.80;3.50;;;;;;;10.25;100.00;99942.69;6090820;23;20311;-81
2022/10/01 05:19:31;;;;;;;3.88;3.53;;;;;;;10.17;100.00;99940.47;6090696;23;20010;-82
2022/10/01 05:21:56;;;;;;;4.28;3.35;;;;;;;10.26;100.00;99949.72;6089415;23;20082;-82
2022/10/01 05:24:21;;;;;;;3.78;3.47;;;;;;;10.25;100.00;99942.69;6089573;23;20078;-81
2022/10/01 05:26:47;;;;;;;3.80;3.50;;;;;;;10.26;100.00;99960.34;6091333;23;20002;-81
2022/10/01 05:29:13;;;;;;;3.97;3.58;;;;;;;10.31;100.00;99965.38;6090277;23;20073;-80
2022/10/01 05:31:41;;;;;;;4.60;4.20;;;;;;;10.34;100.00;99967.84;6091157;23;20359;-82
2022/10/01 05:34:07;;;;;;;6.22;4.07;;;;;;;10.24;100.00;99956.88;6066701;23;20039;-81
2022/10/01 05:36:32;;;;;;;5.00;4.50;;;;;;;10.34;100.00;99979.34;6091670;23;20341;-81
2022/10/01 05:38:57;;;;;;;5.40;4.03;;;;;;;10.34;100.00;99971.34;6090653;23;20078;-81
2022/10/01 05:41:23;;;;;;;4.13;3.83;;;;;;;10.39;100.00;99979.88;6089033;23;20006;-81
2022/10/01 05:43:48;;;;;;;7.13;4.88;;;;;;;10.43;100.00;99988.53;6089813;23;20033;-81
2022/10/01 05:46:14;;;;;;;7.07;5.50;;;;;;;10.42;100.00;99990.34;6089664;23;20002;-81
2022/10/01 05:48:39;;;;;;;4.57;3.97;;;;;;;10.46;100.00;99993.66;6090631;23;20432;-81
2022/10/01 05:51:06;;;;;;;4.45;3.60;;;;;;;10.42;100.00;99987.69;6063110;23;20006;-81
2022/10/01 05:53:36;;;;;;;4.05;3.72;;;;;;;10.42;100.00;99986.84;6063702;23;20017;-81
2022/10/01 05:56:02;;;;;;;5.05;4.50;;;;;;;10.48;100.00;100008.56;6090639;23;20348;-81
2022/10/01 05:58:28;;;;;;;4.78;4.28;;;;;;;10.48;100.00;100000.56;6090376;23;20084;-81
2022/10/01 06:00:54;;;;;;;5.72;4.90;;;;;;;10.54;100.00;100002.00;6063123;23;20093;-81
2022/10/01 06:03:20;;;;;;;4.72;4.13;;;;;;;10.54;100.00;100003.81;6089989;23;20062;-81
2022/10/01 06:05:46;;;;;;;5.60;4.90;;;;;;;10.52;100.00;99997.72;6090461;23;20014;-81
2022/10/01 06:08:12;;;;;;;5.00;4.07;;;;;;;10.58;100.00;100010.66;6088692;23;20089;-81
2022/10/01 06:10:37;;;;;;;6.00;4.47;;;;;;;10.61;100.00;100013.94;6088488;23;20093;-81
2022/10/01 06:13:04;;;;;;;5.75;4.70;;;;;;;10.59;100.00;99999.06;6089659;23;20044;-81
2022/10/01 06:15:38;;;;;;;6.47;5.18;;;;;;;10.59;100.00;100015.00;6089473;23;20089;-81
2022/10/01 06:18:06;;;;;;;5.78;5.22;;;;;;;10.64;100.00;100011.09;6089832;23;20006;-81
2022/10/01 06:20:31;;;;;;;5.82;5.20;;;;;;;10.66;100.00;100022.50;6063056;23;20117;-81
2022/10/01 06:22:57;;;;;;;6.28;5.30;;;;;;;10.60;100.00;100014.91;6088919;23;20044;-81
2022/10/01 06:25:24;;;;;;;6.82;5.70;;;;;;;10.60;100.00;100011.41;6089793;23;20010;-81
2022/10/01 06:27:56;;;;;;;6.15;5.55;;;;;;;10.57;100.00;100020.41;6089936;23;20110;-81
2022/10/01 06:30:25;;;;;;;10.57;5.97;;;;;;;10.60;100.00;100024.69;6062876;23;20122;-81
2022/10/01 06:32:52;;;;;;;7.85;6.43;;;;;;;10.71;100.00;100022.22;6064744;23;20014;-81
2022/10/01 06:35:19;;;;;;;7.68;6.82;;;;;;;10.86;100.00;100017.69;6089975;23;20078;-81
2022/10/01 06:37:45;;;;;;;11.45;7.18;;;;;;;10.99;100.00;100026.56;6089906;23;20041;-81
2022/10/01 06:40:11;;;;;;;9.35;7.30;;;;;;;11.00;100.00;100035.44;6063842;23;20514;-81
2022/10/01 06:42:36;;;;;;;7.70;6.70;;;;;;;11.04;100.00;100029.81;6064919;23;20020;-81
2022/10/01 06:45:02;;;;;;;6.70;6.07;;;;;;;11.07;100.00;100029.59;6090680;23;20009;-81
2022/10/01 06:47:27;;;;;;;7.93;6.38;;;;;;;11.10;100.00;100028.56;6090216;23;20006;-81
2022/10/01 06:49:52;;;;;;;11.10;7.03;;;;;;;11.14;100.00;100025.56;6089310;23;20041;-81
2022/10/01 06:55:02;;;;;;;8.57;6.70;;;;;;;11.34;100.00;100037.59;6090798;23;20017;-81
2022/10/01 06:57:27;;;;;;;8.02;7.03;;;;;;;11.46;100.00;100047.41;6092151;23;20461;-81
2022/10/01 06:59:52;;;;;;;11.55;7.68;;;;;;;11.51;100.00;100047.09;6093822;23;20009;-82
2022/10/01 07:02:27;;;;;;;9.93;7.15;;;;;;;11.55;100.00;100048.59;6093180;23;20009;-81
2022/10/01 07:04:57;;;;;;;9.50;7.10;;;;;;;11.62;100.00;100038.38;6092763;23;20373;-81
2022/10/01 07:07:25;;;;;;;10.52;7.03;;;;;;;11.78;100.00;100048.84;6089921;23;20026;-80
2022/10/01 07:09:50;;;;;;;8.35;6.40;;;;;;;11.79;100.00;100046.09;6088690;23;20669;-81
2022/10/01 07:12:15;;;;;;;9.23;6.30;;;;;;;11.78;100.00;100056.84;6064348;23;20017;-81
2022/10/01 07:14:40;;;;;;;8.30;6.13;;;;;;;11.75;100.00;100055.25;6090323;23;20460;-81
2022/10/01 07:17:06;;;;;;;9.63;6.70;;;;;;;11.79;100.00;100059.44;6090074;23;20029;-81
2022/10/01 07:19:31;;;;;;;10.65;7.78;;;;;;;11.85;100.00;100052.84;6088653;23;20418;-81
2022/10/01 07:21:56;;;;;;;10.95;8.07;;;;;;;11.89;100.00;100049.00;6090232;23;20007;-81
2022/10/01 07:24:21;;;;;;;10.65;7.65;;;;;;;11.98;100.00;100060.84;6089712;23;20107;-81
2022/10/01 07:26:49;;;;;;;10.88;7.72;;;;;;;11.95;100.00;100061.91;6090299;23;20114;-81
2022/10/01 07:29:15;;;;;;;11.10;7.57;;;;;;;11.99;100.00;100070.53;6089368;23;20377;-82
2022/10/01 07:31:40;;;;;;;10.77;7.80;;;;;;;11.95;100.00;100061.91;6089223;23;20003;-81
2022/10/01 07:34:05;;;;;;;11.07;7.45;;;;;;;11.94;100.00;100055.72;6088885;23;20332;-81
2022/10/01 07:36:31;;;;;;;9.18;7.95;;;;;;;11.96;100.00;100067.16;6088560;23;20006;-82
2022/10/01 07:38:57;;;;;;;10.20;8.75;;;;;;;12.00;100.00;100077.59;6088792;23;20085;-81
2022/10/01 07:41:23;;;;;;;10.18;8.60;;;;;;;11.98;100.00;100090.19;6088017;23;20002;-82
2022/10/01 07:43:48;;;;;;;12.68;8.18;;;;;;;11.94;100.00;100089.53;6088404;23;20094;-82
2022/10/01 07:46:14;;;;;;;12.32;9.18;;;;;;;11.93;100.00;100096.69;6087681;23;20010;-82
2022/10/01 07:48:40;;;;;;;12.10;8.77;;;;;;;11.89;100.00;100097.84;6064620;23;20014;-81
2022/10/01 07:51:05;;;;;;;15.70;9.88;;;;;;;11.85;100.00;100096.34;6064321;23;20515;-82
2022/10/01 07:53:30;;;;;;;18.48;10.05;;;;;;;11.87;100.00;100102.44;6090901;23;20002;-81
2022/10/01 07:55:59;;;;;;;23.02;10.60;;;;;;;11.86;100.00;100100.72;6090582;23;20011;-82
2022/10/01 07:58:25;;;;;;;15.77;11.23;;;;;;;11.92;100.00;100113.66;6092023;23;20010;-82
2022/10/01 08:00:54;;;;;;;14.57;11.15;;;;;;;12.01;100.00;100109.50;6092713;23;20306;-82
2022/10/01 08:03:20;;;;;;;16.70;11.95;;;;;;;12.08;100.00;100120.59;6091370;23;20057;-82
2022/10/01 08:05:45;;;;;;;14.98;11.77;;;;;;;12.13;100.00;100116.66;6092052;23;20015;-82
2022/10/01 08:08:11;;;;;;;16.80;12.10;;;;;;;12.14;100.00;100126.38;6065547;23;20229;-82
2022/10/01 08:10:37;;;;;;;14.90;11.45;;;;;;;12.13;100.00;100130.00;6093796;23;20010;-80
2022/10/01 08:13:09;;;;;;;16.10;11.95;;;;;;;12.11;100.00;100139.91;6067804;23;20061;-80
2022/10/01 08:15:35;;;;;;;15.45;12.30;;;;;;;12.09;100.00;100138.31;6091971;23;20026;-81
2022/10/01 08:18:02;;;;;;;15.00;11.23;;;;;;;12.11;100.00;100147.06;6065556;23;20018;-81
2022/10/01 08:20:27;;;;;;;15.43;11.00;;;;;;;12.13;100.00;100158.50;6090556;23;20010;-81
2022/10/01 08:22:53;;;;;;;18.70;12.05;;;;;;;12.14;100.00;100147.72;6091466;23;20085;-81
2022/10/01 08:25:18;;;;;;;14.63;10.90;;;;;;;12.19;100.00;100153.56;6091044;23;20096;-81
2022/10/01 08:27:43;;;;;;;19.33;11.02;;;;;;;12.29;100.00;100156.50;6092628;23;20171;-82
2022/10/01 08:30:09;;;;;;;18.35;10.63;;;;;;;12.40;100.00;100156.56;6089584;23;20095;-81
2022/10/01 08:32:34;;;;;;;12.07;9.77;;;;;;;12.41;100.00;100152.94;6090009;23;20028;-81
2022/10/01 08:35:00;;;;;;;14.27;9.98;;;;;;;12.50;100.00;100155.94;6090780;23;20013;-81
2022/10/01 08:37:27;;;;;;;11.50;8.02;;;;;;;12.52;100.00;100156.69;6090243;23;20129;-81
2022/10/01 08:39:53;;;;;;;9.88;7.43;;;;;;;12.52;100.00;100157.53;6088752;23;20009;-82
2022/10/01 08:42:42;;;;;;;8.90;6.88;;;;;;;12.54;100.00;100170.78;6091243;23;20002;-82
2022/10/01 08:45:33;;;;;;;9.52;6.57;;;;;;;12.46;100.00;100158.00;6090161;23;20085;-82
2022/10/01 08:48:12;;;;;;;8.57;6.53;;;;;;;12.53;100.00;100172.59;6090206;23;20010;-82
2022/10/01 08:50:51;;;;;;;8.15;6.43;;;;;;;12.70;100.00;100168.75;6087942;23;20002;-82
2022/10/01 08:53:26;;;;;;;11.30;7.80;;;;;;;13.31;100.00;100180.44;6088766;23;20620;-82
2022/10/01 08:55:54;;;;;;;13.85;7.60;;;;;;;13.79;100.00;100184.94;6090387;23;20081;-82
2022/10/01 08:58:28;;;;;;;11.25;8.10;;;;;;;14.60;100.00;100178.78;6090135;23;20016;-83
2022/10/01 09:00:54;;;;;;;8.13;5.63;;;;;;;15.38;100.00;100186.78;6089214;23;20006;-82
2022/10/01 09:03:19;;;;;;;7.88;4.00;;;;;;;14.92;100.00;100186.94;6090204;23;20016;-82
2022/10/01 09:05:56;;;;;;;7.47;3.72;;;;;;;14.34;100.00;100199.50;6089493;23;20093;-82
2022/10/01 09:08:45;;;;;;;4.75;3.67;;;;;;;14.11;100.00;100191.41;6089375;23;20014;-82
2022/10/01 09:11:23;;;;;;;6.07;3.53;;;;;;;15.15;100.00;100203.88;6089429;23;20032;-82
2022/10/01 09:14:10;;;;;;;6.60;4.40;;;;;;;16.37;100.00;100209.88;6091096;23;20006;-82
2022/10/01 09:17:13;;;;;;;8.52;4.47;;;;;;;16.96;100.00;100208.41;6089139;23;20037;-82
2022/10/01 09:19:57;;;;;;;7.57;3.77;;;;;;;18.04;96.58;100207.72;6067915;23;20018;-82
2022/10/01 09:22:39;;;;;;;11.05;4.00;;;;;;;19.09;93.56;100213.91;6063842;23;20289;-82
2022/10/01 09:25:07;;;;;;;6.80;3.20;;;;;;;19.39;86.44;100210.06;6090559;23;20002;-82
2022/10/01 09:27:33;;;;;;;5.55;2.88;;;;;;;19.74;84.02;100215.75;6090994;23;20014;-82
2022/10/01 09:30:12;;;;;;;9.10;3.60;;;;;;;18.77;84.79;100218.84;6093241;23;20002;-82
2022/10/01 09:32:46;;;;;;;6.45;3.38;;;;;;;17.75;89.84;100237.28;6089339;23;20006;-82
2022/10/01 09:35:21;;;;;;;11.10;3.60;;;;;;;17.38;91.14;100236.03;6091816;23;20045;-81
2022/10/01 09:37:55;;;;;;;8.15;3.60;;;;;;;16.56;92.57;100240.53;6093262;23;20380;-82
2022/10/01 09:40:29;;;;;;;9.80;3.70;;;;;;;17.36;91.40;100238.00;6092394;23;20006;-82
2022/10/01 09:42:55;;;;;;;8.73;3.50;;;;;;;17.84;87.44;100244.53;6092308;23;20008;-82
2022/10/01 09:45:22;;;;;;;8.27;4.05;;;;;;;17.78;90.82;100234.34;6090302;23;20026;-82
2022/10/01 09:47:52;;;;;;;8.82;4.28;;;;;;;18.37;91.20;100228.81;6091060;23;20010;-83
2022/10/01 09:50:33;;;;;;;13.55;3.80;;;;;;;19.12;84.72;100223.56;6091082;23;20014;-82
2022/10/01 09:52:59;;;;;;;8.02;3.58;;;;;;;18.94;81.43;100228.06;6089630;23;20013;-82
2022/10/01 09:55:44;;;;;;;10.02;3.22;;;;;;;18.70;84.19;100224.00;6090502;23;20085;-82
2022/10/01 09:58:15;;;;;;;14.05;3.38;;;;;;;18.65;81.02;100235.19;6064045;23;20318;-82
2022/10/01 10:00:41;;;;;;;7.00;2.30;;;;;;;19.39;78.44;100236.22;6090354;23;20021;-82
2022/10/01 10:03:06;;;;;;;5.07;2.00;;;;;;;20.45;70.30;100239.22;6089942;23;20057;-81
2022/10/01 10:05:42;;;;;;;8.55;2.35;;;;;;;21.31;70.35;100242.84;6064709;23;20011;-81
2022/10/01 10:08:14;;;;;;;9.38;2.20;;;;;;;22.24;66.48;100245.56;6088292;23;20018;-82
2022/10/01 10:10:49;;;;;;;11.30;2.45;;;;;;;23.28;66.59;100246.63;6088911;23;20369;-82
2022/10/01 10:13:26;;;;;;;9.23;2.72;;;;;;;24.40;60.49;100256.28;6090717;23;20013;-82
2022/10/01 10:15:56;;;;;;;8.95;1.92;;;;;;;24.92;57.28;100254.66;6090150;23;20053;-82
2022/10/01 10:18:29;;;;;;;7.30;2.05;;;;;;;22.74;62.18;100271.69;6089398;23;20086;-82
2022/10/01 10:20:55;;;;;;;7.60;1.80;;;;;;;19.69;68.38;100275.63;6089464;23;20081;-82
2022/10/01 10:23:25;;;;;;;8.05;2.17;;;;;;;17.62;77.89;100283.28;6089557;23;20085;-82
2022/10/01 10:26:01;;;;;;;10.45;2.42;;;;;;;16.48;84.56;100291.38;6064281;23;20034;-82
2022/10/01 10:28:38;;;;;;;11.20;2.45;;;;;;;15.72;88.87;100287.81;6088863;23;20026;-81
2022/10/01 10:31:09;;;;;;;9.88;2.30;;;;;;;15.27;91.76;100286.00;6090512;23;20013;-82
2022/10/01 10:33:34;;;;;;;9.52;2.47;;;;;;;15.11;92.19;100298.91;6089832;23;20415;-81
2022/10/01 10:36:04;;;;;;;17.02;2.67;;;;;;;15.46;92.00;100304.16;6088684;23;20093;-81
2022/10/01 10:38:32;;;;;;;10.48;2.28;;;;;;;15.23;91.46;100305.13;6062472;23;20010;-82
2022/10/01 10:40:58;;;;;;;11.93;2.60;;;;;;;15.47;93.93;100303.19;6089736;23;20069;-82
2022/10/01 10:43:29;;;;;;;10.93;2.28;;;;;;;17.73;79.21;100295.78;6088699;23;20003;-82
2022/10/01 10:45:56;;;;;;;8.90;2.28;;;;;;;19.90;73.45;100313.16;6089589;23;20349;-81
2022/10/01 10:48:27;;;;;;;9.05;2.20;;;;;;;19.80;69.76;100309.66;6089575;23;20094;-83
2022/10/01 10:51:00;;;;;;;11.00;1.95;;;;;;;19.53;69.72;100318.56;6090038;23;20006;-83
2022/10/01 10:53:27;;;;;;;9.48;2.22;;;;;;;21.57;64.84;100324.06;6089644;23;20518;-81
2022/10/01 10:56:00;;;;;;;8.25;2.20;;;;;;;23.15;57.51;100333.22;6090667;23;20074;-82
2022/10/01 10:58:32;;;;;;;8.60;2.07;;;;;;;21.38;59.59;100341.38;6087320;23;20061;-82
2022/10/01 11:01:03;;;;;;;8.20;1.83;;;;;;;19.59;66.48;100343.09;6089192;23;20226;-84
2022/10/01 11:03:31;;;;;;;7.53;1.95;;;;;;;18.58;70.21;100349.09;6089207;23;20041;-82
2022/10/01 11:06:03;;;;;;;10.57;2.33;;;;;;;20.50;66.16;100336.97;6090298;23;20061;-82
2022/10/01 11:08:30;;;;;;;9.25;2.20;;;;;;;22.93;57.35;100340.19;6088366;23;20018;-82
2022/10/01 11:11:35;;;;;;;9.80;2.08;;;;;;;24.51;57.80;100345.63;6089035;23;20006;-84
2022/10/01 11:14:10;;;;;;;5.07;1.60;;;;;;;25.92;48.16;100349.56;6090319;23;20495;-83
2022/10/01 11:17:16;;;;;;;7.53;2.30;;;;;;;26.86;53.59;100355.91;6089396;23;20018;-83
2022/10/01 11:20:11;;;;;;;8.68;2.53;;;;;;;24.84;49.03;100357.13;6090568;23;20475;-82
2022/10/01 11:23:03;;;;;;;9.60;2.22;;;;;;;24.22;55.19;100359.03;6064567;23;20544;-84
2022/10/01 11:25:42;;;;;;;8.43;1.95;;;;;;;23.46;52.29;100365.94;6089919;23;20089;-82
2022/10/01 11:28:11;;;;;;;8.13;2.22;;;;;;;21.75;56.71;100369.19;6086137;23;20061;-81
2022/10/01 11:30:59;;;;;;;7.75;1.65;;;;;;;21.39;60.81;100374.72;6089092;23;20011;-83
2022/10/01 11:33:56;;;;;;;6.95;2.03;;;;;;;20.70;60.04;100387.16;6088931;23;20038;-83
2022/10/01 11:36:40;;;;;;;7.88;1.83;;;;;;;19.49;61.32;100388.19;6089672;23;20329;-83